sensor_id;sensor_type;location;lat;lon;timestamp;pressure;altitude;pressure_sealevel;temperature;humidity
40596;BME280;26304;48.794;9.820;2023-05-24T00:02:54;96644.81;;;17.69;54.80
40596;BME280;26304;48.794;9.820;2023-05-24T00:08:39;96642.00;;;17.54;54.13
40596;BME280;26304;48.794;9.820;2023-05-24T00:14:21;96634.84;;;17.51;54.85
40596;BME280;26304;48.794;9.820;2023-05-24T00:20:04;96625.16;;;17.59;54.49
40596;BME280;26304;48.794;9.820;2023-05-24T00:25:49;96620.41;;;17.68;54.41
40596;BME280;26304;48.794;9.820;2023-05-24T00:31:32;96624.47;;;17.62;54.41
40596;BME280;26304;48.794;9.820;2023-05-24T00:37:14;96605.25;;;17.58;54.96
40596;BME280;26304;48.794;9.820;2023-05-24T00:42:59;96610.78;;;17.49;54.58
40596;BME280;26304;48.794;9.820;2023-05-24T00:48:42;96601.00;;;17.19;55.04
40596;BME280;26304;48.794;9.820;2023-05-24T00:54:25;96593.38;;;17.11;54.69
40596;BME280;26304;48.794;9.820;2023-05-24T01:00:11;96583.59;;;17.08;54.06
40596;BME280;26304;48.794;9.820;2023-05-24T01:05:54;96578.78;;;17.13;54.49
40596;BME280;26304;48.794;9.820;2023-05-24T01:11:46;96579.25;;;16.92;54.93
40596;BME280;26304;48.794;9.820;2023-05-24T01:17:38;96575.22;;;16.98;55.14
40596;BME280;26304;48.794;9.820;2023-05-24T01:23:31;96584.38;;;17.12;54.51
40596;BME280;26304;48.794;9.820;2023-05-24T01:29:18;96581.47;;;17.17;54.20
40596;BME280;26304;48.794;9.820;2023-05-24T01:35:02;96583.59;;;17.08;53.61
40596;BME280;26304;48.794;9.820;2023-05-24T01:40:46;96578.06;;;16.89;53.55
40596;BME280;26304;48.794;9.820;2023-05-24T01:46:35;96576.56;;;16.65;53.16
40596;BME280;26304;48.794;9.820;2023-05-24T01:52:21;96581.72;;;16.58;53.24
40596;BME280;26304;48.794;9.820;2023-05-24T01:58:04;96585.75;;;16.52;53.55
40596;BME280;26304;48.794;9.820;2023-05-24T02:03:49;96580.72;;;16.66;53.06
40596;BME280;26304;48.794;9.820;2023-05-24T02:09:32;96593.13;;;16.69;52.72
40596;BME280;26304;48.794;9.820;2023-05-24T02:15:14;96595.47;;;16.51;52.79
40596;BME280;26304;48.794;9.820;2023-05-24T02:20:58;96604.50;;;16.54;52.58
40596;BME280;26304;48.794;9.820;2023-05-24T02:26:41;96608.59;;;16.51;52.81
40596;BME280;26304;48.794;9.820;2023-05-24T02:32:23;96616.47;;;16.51;52.11
40596;BME280;26304;48.794;9.820;2023-05-24T02:38:07;96614.19;;;16.50;52.70
40596;BME280;26304;48.794;9.820;2023-05-24T02:43:50;96612.91;;;16.63;52.29
40596;BME280;26304;48.794;9.820;2023-05-24T02:49:32;96614.00;;;16.62;52.55
40596;BME280;26304;48.794;9.820;2023-05-24T02:55:16;96610.44;;;16.51;52.32
40596;BME280;26304;48.794;9.820;2023-05-24T03:00:58;96610.53;;;16.55;52.65
40596;BME280;26304;48.794;9.820;2023-05-24T03:06:41;96617.09;;;16.45;52.98
40596;BME280;26304;48.794;9.820;2023-05-24T03:12:25;96602.47;;;16.44;52.71
40596;BME280;26304;48.794;9.820;2023-05-24T03:18:07;96607.78;;;16.47;52.73
40596;BME280;26304;48.794;9.820;2023-05-24T03:23:50;96610.22;;;16.37;53.41
40596;BME280;26304;48.794;9.820;2023-05-24T03:29:33;96607.19;;;16.34;52.93
40596;BME280;26304;48.794;9.820;2023-05-24T03:35:16;96611.44;;;16.43;53.45
40596;BME280;26304;48.794;9.820;2023-05-24T03:40:58;96614.94;;;16.50;53.21
40596;BME280;26304;48.794;9.820;2023-05-24T03:46:42;96617.97;;;16.29;53.89
40596;BME280;26304;48.794;9.820;2023-05-24T03:52:24;96614.91;;;16.47;54.91
40596;BME280;26304;48.794;9.820;2023-05-24T03:58:07;96608.72;;;16.59;53.80
40596;BME280;26304;48.794;9.820;2023-05-24T04:03:51;96596.22;;;16.52;53.46
40596;BME280;26304;48.794;9.820;2023-05-24T04:09:36;96602.59;;;16.51;53.03
40596;BME280;26304;48.794;9.820;2023-05-24T04:15:18;96606.09;;;16.59;53.48
40596;BME280;26304;48.794;9.820;2023-05-24T04:21:02;96590.47;;;16.66;53.26
40596;BME280;26304;48.794;9.820;2023-05-24T04:26:45;96597.38;;;16.31;53.05
40596;BME280;26304;48.794;9.820;2023-05-24T04:32:27;96598.78;;;16.71;52.94
40596;BME280;26304;48.794;9.820;2023-05-24T04:38:11;96601.97;;;17.08;53.04
40596;BME280;26304;48.794;9.820;2023-05-24T04:43:54;96601.03;;;17.23;52.53
40596;BME280;26304;48.794;9.820;2023-05-24T04:49:36;96606.72;;;17.25;52.35
40596;BME280;26304;48.794;9.820;2023-05-24T04:55:21;96607.94;;;17.31;51.92
40596;BME280;26304;48.794;9.820;2023-05-24T05:01:03;96609.44;;;17.32;52.48
40596;BME280;26304;48.794;9.820;2023-05-24T05:06:45;96621.63;;;17.44;52.13
40596;BME280;26304;48.794;9.820;2023-05-24T05:12:30;96620.16;;;17.50;52.16
40596;BME280;26304;48.794;9.820;2023-05-24T05:18:12;96622.56;;;17.32;52.41
40596;BME280;26304;48.794;9.820;2023-05-24T05:23:56;96630.56;;;17.39;53.00
40596;BME280;26304;48.794;9.820;2023-05-24T05:29:40;96630.78;;;17.57;53.06
40596;BME280;26304;48.794;9.820;2023-05-24T05:35:22;96625.84;;;17.52;53.38
40596;BME280;26304;48.794;9.820;2023-05-24T05:41:05;96621.50;;;17.67;52.63
40596;BME280;26304;48.794;9.820;2023-05-24T05:46:48;96624.16;;;17.71;52.46
40596;BME280;26304;48.794;9.820;2023-05-24T05:52:31;96613.72;;;17.74;52.85
40596;BME280;26304;48.794;9.820;2023-05-24T05:58:14;96614.50;;;17.78;52.68
40596;BME280;26304;48.794;9.820;2023-05-24T06:03:58;96614.50;;;17.78;52.84
40596;BME280;26304;48.794;9.820;2023-05-24T06:09:40;96608.91;;;17.84;52.50
40596;BME280;26304;48.794;9.820;2023-05-24T06:15:22;96622.06;;;17.84;52.36
40596;BME280;26304;48.794;9.820;2023-05-24T06:21:06;96619.84;;;17.86;52.66
40596;BME280;26304;48.794;9.820;2023-05-24T06:26:51;96616.88;;;17.87;52.55
40596;BME280;26304;48.794;9.820;2023-05-24T06:32:33;96620.28;;;17.88;52.61
40596;BME280;26304;48.794;9.820;2023-05-24T06:38:18;96619.56;;;17.91;52.89
40596;BME280;26304;48.794;9.820;2023-05-24T06:44:00;96630.88;;;17.95;52.85
40596;BME280;26304;48.794;9.820;2023-05-24T06:49:43;96626.72;;;17.94;52.78
40596;BME280;26304;48.794;9.820;2023-05-24T06:55:27;96632.03;;;17.97;52.64
40596;BME280;26304;48.794;9.820;2023-05-24T07:01:09;96640.31;;;18.00;52.61
40596;BME280;26304;48.794;9.820;2023-05-24T07:06:51;96652.44;;;18.08;52.77
40596;BME280;26304;48.794;9.820;2023-05-24T07:12:35;96654.31;;;18.07;52.56
40596;BME280;26304;48.794;9.820;2023-05-24T07:18:18;96672.34;;;18.09;52.52
40596;BME280;26304;48.794;9.820;2023-05-24T07:24:01;96675.75;;;18.09;53.13
40596;BME280;26304;48.794;9.820;2023-05-24T07:29:45;96676.16;;;18.11;52.51
40596;BME280;26304;48.794;9.820;2023-05-24T07:35:27;96678.78;;;18.11;52.99
40596;BME280;26304;48.794;9.820;2023-05-24T07:41:12;96672.03;;;18.14;52.37
40596;BME280;26304;48.794;9.820;2023-05-24T07:46:56;96684.91;;;18.19;52.54
40596;BME280;26304;48.794;9.820;2023-05-24T07:52:38;96683.75;;;18.20;52.94
40596;BME280;26304;48.794;9.820;2023-05-24T07:58:21;96691.28;;;18.22;53.02
40596;BME280;26304;48.794;9.820;2023-05-24T08:04:04;96694.72;;;18.26;52.55
40596;BME280;26304;48.794;9.820;2023-05-24T08:09:48;96699.25;;;18.25;52.82
40596;BME280;26304;48.794;9.820;2023-05-24T08:15:31;96700.38;;;18.28;53.18
40596;BME280;26304;48.794;9.820;2023-05-24T08:21:15;96695.44;;;18.23;53.21
40596;BME280;26304;48.794;9.820;2023-05-24T08:26:57;96709.72;;;18.22;53.27
40596;BME280;26304;48.794;9.820;2023-05-24T08:32:40;96718.09;;;18.31;52.69
40596;BME280;26304;48.794;9.820;2023-05-24T08:38:24;96704.56;;;18.32;52.85
40596;BME280;26304;48.794;9.820;2023-05-24T08:44:07;96709.09;;;18.32;53.08
40596;BME280;26304;48.794;9.820;2023-05-24T08:49:49;96717.41;;;18.38;52.74
40596;BME280;26304;48.794;9.820;2023-05-24T08:55:34;96727.19;;;18.37;52.69
40596;BME280;26304;48.794;9.820;2023-05-24T09:01:17;96723.44;;;18.38;52.54
40596;BME280;26304;48.794;9.820;2023-05-24T09:07:00;96724.19;;;18.39;52.60
40596;BME280;26304;48.794;9.820;2023-05-24T09:12:47;96721.56;;;18.39;52.74
40596;BME280;26304;48.794;9.820;2023-05-24T09:18:32;96723.09;;;18.40;52.68
40596;BME280;26304;48.794;9.820;2023-05-24T09:24:15;96731.75;;;18.44;52.95
40596;BME280;26304;48.794;9.820;2023-05-24T09:29:59;96732.50;;;18.44;52.68
40596;BME280;26304;48.794;9.820;2023-05-24T09:35:42;96731.72;;;18.40;52.22
40596;BME280;26304;48.794;9.820;2023-05-24T09:41:24;96743.25;;;18.28;51.90
40596;BME280;26304;48.794;9.820;2023-05-24T09:47:08;96739.13;;;18.27;52.14
40596;BME280;26304;48.794;9.820;2023-05-24T09:52:52;96737.56;;;18.23;50.74
40596;BME280;26304;48.794;9.820;2023-05-24T09:58:36;96741.50;;;18.40;51.19
40596;BME280;26304;48.794;9.820;2023-05-24T10:04:31;96737.47;;;18.49;51.33
40596;BME280;26304;48.794;9.820;2023-05-24T10:10:14;96747.09;;;18.72;51.21
40596;BME280;26304;48.794;9.820;2023-05-24T10:15:56;96738.38;;;19.50;49.60
40596;BME280;26304;48.794;9.820;2023-05-24T10:21:41;96739.00;;;18.84;51.41
40596;BME280;26304;48.794;9.820;2023-05-24T10:27:27;96727.78;;;18.57;50.37
40596;BME280;26304;48.794;9.820;2023-05-24T10:33:12;96728.72;;;18.38;49.54
40596;BME280;26304;48.794;9.820;2023-05-24T10:38:56;96722.72;;;18.41;49.32
40596;BME280;26304;48.794;9.820;2023-05-24T10:44:39;96723.44;;;18.38;49.83
40596;BME280;26304;48.794;9.820;2023-05-24T10:50:22;96725.03;;;18.46;50.71
40596;BME280;26304;48.794;9.820;2023-05-24T10:56:07;96714.34;;;18.32;51.32
40596;BME280;26304;48.794;9.820;2023-05-24T11:01:54;96715.06;;;18.29;50.53
40596;BME280;26304;48.794;9.820;2023-05-24T11:07:40;96717.88;;;18.09;50.46
40596;BME280;26304;48.794;9.820;2023-05-24T11:13:26;96708.66;;;18.30;49.75
40596;BME280;26304;48.794;9.820;2023-05-24T11:19:13;96706.72;;;18.23;49.57
40596;BME280;26304;48.794;9.820;2023-05-24T11:24:57;96703.03;;;18.28;49.83
40596;BME280;26304;48.794;9.820;2023-05-24T11:30:46;96697.69;;;18.21;50.08
40596;BME280;26304;48.794;9.820;2023-05-24T11:36:29;96703.25;;;18.15;49.97
40596;BME280;26304;48.794;9.820;2023-05-24T11:42:13;96704.38;;;18.14;49.10
40596;BME280;26304;48.794;9.820;2023-05-24T11:48:03;96711.16;;;18.15;49.65
40596;BME280;26304;48.794;9.820;2023-05-24T11:53:46;96702.16;;;18.17;49.51
40596;BME280;26304;48.794;9.820;2023-05-24T11:59:28;96694.59;;;18.15;49.60
40596;BME280;26304;48.794;9.820;2023-05-24T12:05:13;96689.38;;;18.19;49.30
40596;BME280;26304;48.794;9.820;2023-05-24T12:10:55;96687.81;;;18.14;49.29
40596;BME280;26304;48.794;9.820;2023-05-24T12:16:41;96692.50;;;18.28;49.57
40596;BME280;26304;48.794;9.820;2023-05-24T12:22:28;96693.63;;;18.27;49.54
40596;BME280;26304;48.794;9.820;2023-05-24T12:28:11;96687.22;;;18.28;49.77
40596;BME280;26304;48.794;9.820;2023-05-24T12:33:54;96693.31;;;18.32;49.61
40596;BME280;26304;48.794;9.820;2023-05-24T12:39:38;96683.97;;;18.38;49.67
40596;BME280;26304;48.794;9.820;2023-05-24T12:45:22;96679.72;;;18.30;49.50
40596;BME280;26304;48.794;9.820;2023-05-24T12:51:06;96668.94;;;18.42;49.21
40596;BME280;26304;48.794;9.820;2023-05-24T12:56:51;96665.31;;;18.17;47.50
40596;BME280;26304;48.794;9.820;2023-05-24T13:02:34;96661.75;;;18.36;48.55
40596;BME280;26304;48.794;9.820;2023-05-24T13:08:16;96662.47;;;18.32;48.13
40596;BME280;26304;48.794;9.820;2023-05-24T13:14:01;96655.00;;;18.38;47.43
40596;BME280;26304;48.794;9.820;2023-05-24T13:19:44;96646.03;;;18.43;46.85
40596;BME280;26304;48.794;9.820;2023-05-24T13:25:28;96637.84;;;18.51;46.94
40596;BME280;26304;48.794;9.820;2023-05-24T13:31:11;96642.25;;;18.40;47.56
40596;BME280;26304;48.794;9.820;2023-05-24T13:36:54;96631.28;;;18.34;46.82
40596;BME280;26304;48.794;9.820;2023-05-24T13:42:37;96634.22;;;18.26;46.89
40596;BME280;26304;48.794;9.820;2023-05-24T13:48:21;96631.03;;;18.50;46.26
40596;BME280;26304;48.794;9.820;2023-05-24T13:54:04;96642.38;;;18.55;45.17
40596;BME280;26304;48.794;9.820;2023-05-24T13:59:47;96625.41;;;18.52;44.78
40596;BME280;26304;48.794;9.820;2023-05-24T14:05:31;96633.06;;;18.68;44.73
40596;BME280;26304;48.794;9.820;2023-05-24T14:11:13;96628.91;;;18.63;45.56
40596;BME280;26304;48.794;9.820;2023-05-24T14:16:56;96629.31;;;18.65;44.13
40596;BME280;26304;48.794;9.820;2023-05-24T14:22:40;96622.00;;;18.89;43.52
40596;BME280;26304;48.794;9.820;2023-05-24T14:28:22;96617.09;;;18.87;44.51
40596;BME280;26304;48.794;9.820;2023-05-24T14:34:05;96608.31;;;18.76;42.96
40596;BME280;26304;48.794;9.820;2023-05-24T14:39:49;96610.16;;;18.72;43.93
40596;BME280;26304;48.794;9.820;2023-05-24T14:45:32;96609.41;;;18.72;43.69
40596;BME280;26304;48.794;9.820;2023-05-24T14:51:14;96613.19;;;18.74;44.77
40596;BME280;26304;48.794;9.820;2023-05-24T14:56:58;96618.56;;;18.85;44.68
40596;BME280;26304;48.794;9.820;2023-05-24T15:02:41;96611.47;;;18.89;44.62
40596;BME280;26304;48.794;9.820;2023-05-24T15:08:23;96615.22;;;18.92;43.49
40596;BME280;26304;48.794;9.820;2023-05-24T15:14:07;96607.69;;;18.94;43.92
40596;BME280;26304;48.794;9.820;2023-05-24T15:19:49;96605.13;;;18.97;44.76
40596;BME280;26304;48.794;9.820;2023-05-24T15:25:33;96600.97;;;19.00;43.50
40596;BME280;26304;48.794;9.820;2023-05-24T15:31:17;96609.59;;;18.97;44.02
40596;BME280;26304;48.794;9.820;2023-05-24T15:37:00;96614.91;;;19.00;43.30
40596;BME280;26304;48.794;9.820;2023-05-24T15:42:42;96610.38;;;18.97;42.96
40596;BME280;26304;48.794;9.820;2023-05-24T15:48:26;96602.81;;;18.92;43.15
40596;BME280;26304;48.794;9.820;2023-05-24T15:54:09;96602.88;;;19.03;43.71
40596;BME280;26304;48.794;9.820;2023-05-24T15:59:51;96602.16;;;19.06;43.19
40596;BME280;26304;48.794;9.820;2023-05-24T16:05:35;96603.25;;;19.05;42.49
40596;BME280;26304;48.794;9.820;2023-05-24T16:11:17;96601.84;;;19.15;42.05
40596;BME280;26304;48.794;9.820;2023-05-24T16:17:00;96611.47;;;18.93;41.48
40596;BME280;26304;48.794;9.820;2023-05-24T16:22:48;96601.66;;;18.90;41.51
40596;BME280;26304;48.794;9.820;2023-05-24T16:28:30;96598.88;;;18.72;41.16
40596;BME280;26304;48.794;9.820;2023-05-24T16:34:13;96608.06;;;18.88;41.18
40596;BME280;26304;48.794;9.820;2023-05-24T16:39:57;96587.31;;;18.39;40.86
40596;BME280;26304;48.794;9.820;2023-05-24T16:45:40;96596.16;;;17.52;41.06
40596;BME280;26304;48.794;9.820;2023-05-24T16:51:22;96602.16;;;17.83;40.48
40596;BME280;26304;48.794;9.820;2023-05-24T16:57:06;96613.59;;;17.94;39.40
40596;BME280;26304;48.794;9.820;2023-05-24T17:02:48;96606.97;;;17.77;39.96
40596;BME280;26304;48.794;9.820;2023-05-24T17:08:32;96606.97;;;17.77;39.64
40596;BME280;26304;48.794;9.820;2023-05-24T17:14:16;96603.31;;;17.55;39.46
40596;BME280;26304;48.794;9.820;2023-05-24T17:19:59;96618.63;;;17.46;39.24
40596;BME280;26304;48.794;9.820;2023-05-24T17:25:41;96599.81;;;17.43;39.17
40596;BME280;26304;48.794;9.820;2023-05-24T17:31:25;96604.34;;;17.47;39.30
40596;BME280;26304;48.794;9.820;2023-05-24T17:37:07;96616.47;;;17.55;38.70
40596;BME280;26304;48.794;9.820;2023-05-24T17:42:49;96623.81;;;17.42;39.07
40596;BME280;26304;48.794;9.820;2023-05-24T17:48:34;96622.53;;;17.29;39.12
40596;BME280;26304;48.794;9.820;2023-05-24T17:54:17;96631.94;;;17.30;39.28
40596;BME280;26304;48.794;9.820;2023-05-24T17:59:59;96629.56;;;17.82;39.05
40596;BME280;26304;48.794;9.820;2023-05-24T18:05:43;96642.91;;;17.96;38.67
40596;BME280;26304;48.794;9.820;2023-05-24T18:11:26;96651.59;;;18.00;40.13
40596;BME280;26304;48.794;9.820;2023-05-24T18:17:09;96643.72;;;18.00;39.16
40596;BME280;26304;48.794;9.820;2023-05-24T18:22:53;96653.34;;;18.23;39.38
40596;BME280;26304;48.794;9.820;2023-05-24T18:28:36;96657.50;;;18.24;39.78
40596;BME280;26304;48.794;9.820;2023-05-24T18:34:19;96664.28;;;18.66;39.43
40596;BME280;26304;48.794;9.820;2023-05-24T18:40:03;96660.72;;;18.85;39.66
40596;BME280;26304;48.794;9.820;2023-05-24T18:45:46;96661.38;;;18.78;39.06
40596;BME280;26304;48.794;9.820;2023-05-24T18:51:28;96668.03;;;18.65;39.98
40596;BME280;26304;48.794;9.820;2023-05-24T18:57:12;96672.53;;;18.61;39.70
40596;BME280;26304;48.794;9.820;2023-05-24T19:02:54;96682.19;;;18.49;39.31
40596;BME280;26304;48.794;9.820;2023-05-24T19:08:37;96692.84;;;18.26;39.49
40596;BME280;26304;48.794;9.820;2023-05-24T19:14:20;96689.63;;;18.06;39.76
40596;BME280;26304;48.794;9.820;2023-05-24T19:20:03;96695.69;;;17.84;40.17
40596;BME280;26304;48.794;9.820;2023-05-24T19:25:47;96700.75;;;17.92;40.03
40596;BME280;26304;48.794;9.820;2023-05-24T19:31:31;96693.19;;;17.64;41.10
40596;BME280;26304;48.794;9.820;2023-05-24T19:37:16;96695.13;;;17.67;40.89
40596;BME280;26304;48.794;9.820;2023-05-24T19:42:58;96695.59;;;17.73;41.01
40596;BME280;26304;48.794;9.820;2023-05-24T19:48:42;96698.41;;;17.60;41.05
40596;BME280;26304;48.794;9.820;2023-05-24T19:54:24;96707.88;;;17.65;40.58
40596;BME280;26304;48.794;9.820;2023-05-24T20:00:07;96704.84;;;17.63;40.71
40596;BME280;26304;48.794;9.820;2023-05-24T20:05:53;96711.09;;;17.55;40.60
40596;BME280;26304;48.794;9.820;2023-05-24T20:11:36;96703.63;;;17.57;41.20
40596;BME280;26304;48.794;9.820;2023-05-24T20:17:18;96696.97;;;17.63;41.21
40596;BME280;26304;48.794;9.820;2023-05-24T20:23:02;96704.44;;;17.61;41.38
40596;BME280;26304;48.794;9.820;2023-05-24T20:28:44;96708.97;;;17.64;41.45
40596;BME280;26304;48.794;9.820;2023-05-24T20:34:27;96718.75;;;17.64;41.32
40596;BME280;26304;48.794;9.820;2023-05-24T20:40:11;96709.25;;;17.55;42.12
40596;BME280;26304;48.794;9.820;2023-05-24T20:45:55;96704.22;;;17.47;42.08
40596;BME280;26304;48.794;9.820;2023-05-24T20:51:37;96700.50;;;17.48;41.73
40596;BME280;26304;48.794;9.820;2023-05-24T20:57:21;96703.31;;;17.35;41.88
40596;BME280;26304;48.794;9.820;2023-05-24T21:03:04;96701.94;;;17.45;41.68
40596;BME280;26304;48.794;9.820;2023-05-24T21:08:49;96700.50;;;17.48;41.40
40596;BME280;26304;48.794;9.820;2023-05-24T21:14:33;96715.44;;;17.43;41.43
40596;BME280;26304;48.794;9.820;2023-05-24T21:20:15;96712.97;;;17.28;42.33
40596;BME280;26304;48.794;9.820;2023-05-24T21:25:57;96715.25;;;17.29;42.19
40596;BME280;26304;48.794;9.820;2023-05-24T21:31:41;96713.03;;;17.31;42.53
40596;BME280;26304;48.794;9.820;2023-05-24T21:37:26;96701.50;;;17.39;42.42
40596;BME280;26304;48.794;9.820;2023-05-24T21:43:08;96710.06;;;17.33;42.49
40596;BME280;26304;48.794;9.820;2023-05-24T21:48:53;96706.91;;;17.23;42.80
40596;BME280;26304;48.794;9.820;2023-05-24T21:54:37;96715.16;;;17.22;42.01
40596;BME280;26304;48.794;9.820;2023-05-24T22:00:20;96718.06;;;17.17;42.50
40596;BME280;26304;48.794;9.820;2023-05-24T22:06:04;96724.31;;;17.09;41.92
40596;BME280;26304;48.794;9.820;2023-05-24T22:11:47;96733.84;;;17.17;42.52
40596;BME280;26304;48.794;9.820;2023-05-24T22:17:29;96725.47;;;17.11;42.15
40596;BME280;26304;48.794;9.820;2023-05-24T22:23:14;96730.69;;;17.08;42.51
40596;BME280;26304;48.794;9.820;2023-05-24T22:28:57;96722.63;;;16.97;42.63
40596;BME280;26304;48.794;9.820;2023-05-24T22:34:43;96725.25;;;16.97;42.72
40596;BME280;26304;48.794;9.820;2023-05-24T22:40:30;96729.75;;;16.96;42.57
40596;BME280;26304;48.794;9.820;2023-05-24T22:46:12;96723.91;;;17.06;42.33
40596;BME280;26304;48.794;9.820;2023-05-24T22:51:54;96720.19;;;17.08;42.81
40596;BME280;26304;48.794;9.820;2023-05-24T22:57:38;96715.44;;;16.94;43.25
40596;BME280;26304;48.794;9.820;2023-05-24T23:03:20;96726.78;;;16.98;42.97
40596;BME280;26304;48.794;9.820;2023-05-24T23:09:03;96727.88;;;16.97;43.57
40596;BME280;26304;48.794;9.820;2023-05-24T23:14:47;96724.38;;;16.89;43.50
40596;BME280;26304;48.794;9.820;2023-05-24T23:20:29;96729.63;;;16.89;43.16
40596;BME280;26304;48.794;9.820;2023-05-24T23:26:12;96730.97;;;16.83;43.39
40596;BME280;26304;48.794;9.820;2023-05-24T23:31:55;96724.22;;;16.82;43.36
40596;BME280;26304;48.794;9.820;2023-05-24T23:37:38;96712.84;;;16.74;43.84
40596;BME280;26304;48.794;9.820;2023-05-24T23:43:20;96723.84;;;16.60;43.95
40596;BME280;26304;48.794;9.820;2023-05-24T23:49:04;96717.28;;;16.50;43.52
40596;BME280;26304;48.794;9.820;2023-05-24T23:54:46;96722.88;;;16.49;43.65
